Time;durP1;ratioP1;P1;durP2;ratioP2;P2;SDS_P1;SDS_P2;PMS_P1;PMS_P2;Temp;Humidity;BMP_temperature;BMP_pressure;BME280_temperature;BME280_humidity;BME280_pressure;Samples;Min_cycle;Max_cycle;Signal;HPM_P1;HPM_P2
2022/12/17 13:06:41;;;;;;;97.22;47.55;;;7.20;57.50;;;;;;5110841;28;20517;-85
2022/12/17 13:09:16;;;;;;;207.50;100.88;;;7.00;56.90;;;;;;5091291;28;20034;-81
2022/12/17 13:11:51;;;;;;;80.00;41.50;;;7.00;57.00;;;;;;5110635;28;20039;-82
2022/12/17 13:14:25;;;;;;;89.82;53.50;;;7.10;57.60;;;;;;5081197;28;20017;-80
2022/12/17 13:16:56;;;;;;;76.95;37.00;;;7.20;57.50;;;;;;5083187;28;20380;-79
2022/12/17 13:19:39;;;;;;;79.10;38.50;;;7.40;56.90;;;;;;5064548;28;20047;-82
2022/12/17 13:22:14;;;;;;;151.00;76.25;;;7.30;56.60;;;;;;5065835;28;20039;-81
2022/12/17 13:24:48;;;;;;;57.15;29.48;;;6.90;57.70;;;;;;5059691;28;20025;-81
2022/12/17 13:27:30;;;;;;;68.57;39.05;;;7.00;57.30;;;;;;5056412;28;20102;-81
2022/12/17 13:30:09;;;;;;;62.17;31.17;;;6.90;57.70;;;;;;5069259;28;20480;-81
2022/12/17 13:32:58;;;;;;;54.95;25.70;;;7.00;57.30;;;;;;5051299;28;20029;-86
2022/12/17 13:36:01;;;;;;;67.50;32.03;;;7.00;57.30;;;;;;5052092;28;20020;-82
2022/12/17 13:39:14;;;;;;;423.52;212.40;;;6.40;58.00;;;;;;5051606;28;20013;-81
2022/12/17 13:41:40;;;;;;;66.32;36.55;;;6.80;58.10;;;;;;4975959;28;20506;-81
2022/12/17 13:44:50;;;;;;;52.70;28.50;;;6.90;57.30;;;;;;4975502;28;20042;-84
2022/12/17 13:47:32;;;;;;;61.65;31.65;;;7.20;57.80;;;;;;4958075;28;20497;-81
2022/12/17 13:50:00;;;;;;;54.80;28.48;;;7.10;56.30;;;;;;4980659;28;20082;-78
2022/12/17 13:52:32;;;;;;;56.08;25.45;;;6.80;57.40;;;;;;4993010;28;20117;-79
2022/12/17 13:55:10;;;;;;;52.70;24.65;;;6.80;57.50;;;;;;4987565;28;20418;-80
2022/12/17 13:57:36;;;;;;;52.40;25.70;;;6.60;57.80;;;;;;4992836;28;20061;-81
2022/12/17 14:00:07;;;;;;;52.60;28.73;;;6.90;57.90;;;;;;4994348;28;20460;-84
2022/12/17 14:02:38;;;;;;;58.83;30.40;;;7.00;56.70;;;;;;4993584;28;20129;-78
2022/12/17 14:05:06;;;;;;;58.67;29.17;;;7.00;56.80;;;;;;4991958;28;20059;-78
2022/12/17 14:07:36;;;;;;;59.40;32.47;;;6.60;57.20;;;;;;4989968;28;20385;-79
2022/12/17 14:10:04;;;;;;;71.82;35.95;;;6.60;57.50;;;;;;4993295;28;20570;-79
2022/12/17 14:12:33;;;;;;;73.28;38.47;;;7.00;56.70;;;;;;4978088;28;20030;-81
2022/12/17 14:15:07;;;;;;;135.80;76.38;;;7.10;57.10;;;;;;4978143;28;20109;-78
2022/12/17 14:17:36;;;;;;;307.42;138.43;;;7.20;55.90;;;;;;5030414;28;20452;-77
2022/12/17 14:20:09;;;;;;;367.38;156.88;;;6.90;56.40;;;;;;5061208;28;20491;-78
2022/12/17 14:22:41;;;;;;;217.27;97.55;;;7.00;56.60;;;;;;5047035;28;20123;-78
2022/12/17 14:25:37;;;;;;;135.60;76.00;;;7.00;55.70;;;;;;5060805;28;20036;-79
2022/12/17 14:28:29;;;;;;;63.88;30.33;;;7.10;56.20;;;;;;5054442;28;21792;-79
2022/12/17 14:31:13;;;;;;;94.10;48.15;;;6.90;55.80;;;;;;5061108;28;20476;-80
2022/12/17 14:33:39;;;;;;;70.30;34.38;;;6.90;55.90;;;;;;4368308;28;10000167;-82
2022/12/17 14:36:20;;;;;;;75.43;33.72;;;6.70;56.50;;;;;;5056011;28;20046;-81
2022/12/17 14:38:58;;;;;;;75.80;36.95;;;6.60;57.00;;;;;;5056451;28;20029;-80
2022/12/17 14:44:29;;;;;;;71.78;37.13;;;6.20;57.80;;;;;;4722088;28;9999869;-81
2022/12/17 14:47:35;;;;;;;58.80;26.35;;;6.20;57.80;;;;;;5068229;28;20021;-83
2022/12/17 14:50:32;;;;;;;117.10;50.95;;;5.90;56.80;;;;;;5041258;28;20067;-82
2022/12/17 14:53:00;;;;;;;300.33;134.32;;;5.80;57.70;;;;;;5037031;28;20036;-80
2022/12/17 14:55:50;;;;;;;143.13;66.32;;;5.50;58.30;;;;;;5054935;28;20036;-80
2022/12/17 14:58:26;;;;;;;121.93;58.97;;;5.80;58.40;;;;;;5048421;28;20029;-80
2022/12/17 15:01:05;;;;;;;62.03;27.30;;;6.60;57.60;;;;;;5053325;28;20079;-80
2022/12/17 15:03:33;;;;;;;70.22;33.10;;;7.10;55.30;;;;;;5044630;28;20013;-79
2022/12/17 15:06:08;;;;;;;116.10;53.75;;;7.20;55.40;;;;;;5052498;28;20585;-81
2022/12/17 15:08:44;;;;;;;73.25;30.98;;;7.00;54.80;;;;;;5054717;28;20127;-83
2022/12/17 15:11:20;;;;;;;76.20;36.78;;;6.70;56.20;;;;;;5054752;28;20064;-80
2022/12/17 15:13:46;;;;;;;60.40;25.85;;;6.30;56.00;;;;;;5049159;28;20656;-80
2022/12/17 15:16:12;;;;;;;56.78;25.15;;;6.30;57.30;;;;;;5041257;28;20025;-80
2022/12/17 15:18:37;;;;;;;73.65;34.63;;;6.30;56.60;;;;;;5065907;28;20070;-80
2022/12/17 15:21:15;;;;;;;64.05;28.77;;;6.60;56.70;;;;;;4703577;28;10000586;-80
2022/12/17 15:23:43;;;;;;;89.25;42.92;;;6.80;55.50;;;;;;5039264;28;20043;-81
2022/12/17 15:26:32;;;;;;;81.45;38.65;;;6.60;55.70;;;;;;5060105;28;20125;-80
2022/12/17 15:28:57;;;;;;;86.65;38.35;;;6.60;56.00;;;;;;5044208;28;20094;-82
2022/12/17 15:31:23;;;;;;;88.20;47.78;;;6.20;56.20;;;;;;5036188;28;20363;-79
2022/12/17 15:33:49;;;;;;;72.90;36.92;;;6.20;57.50;;;;;;5038540;28;20480;-80
2022/12/17 15:36:14;;;;;;;61.63;27.05;;;6.50;56.90;;;;;;5046649;28;20733;-79
2022/12/17 15:38:40;;;;;;;80.25;41.92;;;6.40;56.10;;;;;;5039941;28;20288;-79
2022/12/17 15:43:50;;;;;;;84.85;40.17;;;7.00;55.60;;;;;;5037586;28;20041;-79
2022/12/17 15:46:16;;;;;;;79.63;37.20;;;6.90;55.30;;;;;;5036518;28;20021;-80
2022/12/17 15:48:42;;;;;;;102.82;53.63;;;7.10;55.70;;;;;;5035538;28;20120;-80
2022/12/17 15:51:08;;;;;;;125.18;57.03;;;7.50;55.10;;;;;;5035950;28;20031;-79
2022/12/17 15:53:34;;;;;;;59.90;26.73;;;7.60;54.00;;;;;;5034105;28;20029;-80
2022/12/17 15:56:03;;;;;;;69.78;34.15;;;7.70;53.80;;;;;;5032683;28;20021;-79
2022/12/17 15:58:30;;;;;;;132.73;65.78;;;7.50;53.60;;;;;;5042885;28;20033;-79
2022/12/17 16:00:55;;;;;;;83.50;38.40;;;7.50;54.20;;;;;;5053567;28;20021;-80
2022/12/17 16:03:21;;;;;;;96.15;43.92;;;7.50;54.20;;;;;;5051361;28;20075;-80
2022/12/17 16:05:47;;;;;;;134.80;66.00;;;7.90;54.00;;;;;;5050618;28;20035;-80
2022/12/17 16:08:12;;;;;;;87.20;43.38;;;7.80;53.80;;;;;;5052726;28;20039;-79
2022/12/17 16:10:38;;;;;;;62.33;26.42;;;7.90;54.00;;;;;;5052104;28;20025;-79
2022/12/17 16:13:04;;;;;;;171.45;51.55;;;8.20;53.40;;;;;;5051124;28;20049;-80
2022/12/17 16:15:30;;;;;;;140.98;44.05;;;8.00;53.10;;;;;;5052820;28;20460;-80
2022/12/17 16:17:56;;;;;;;370.60;110.75;;;7.40;54.20;;;;;;5053081;28;20079;-80
2022/12/17 16:20:22;;;;;;;473.42;146.00;;;7.60;54.30;;;;;;5051926;28;20021;-82
2022/12/17 16:22:48;;;;;;;124.78;41.13;;;7.50;54.10;;;;;;5051886;28;20025;-81
2022/12/17 16:25:14;;;;;;;505.88;158.95;;;7.00;54.70;;;;;;5052088;28;20064;-79
2022/12/17 16:27:40;;;;;;;675.25;213.90;;;6.70;55.10;;;;;;5055526;28;20056;-78
2022/12/17 16:30:06;;;;;;;493.63;150.50;;;6.40;56.40;;;;;;5054988;28;20078;-80
2022/12/17 16:32:32;;;;;;;349.25;104.65;;;6.10;57.00;;;;;;5072212;28;20395;-80
2022/12/17 16:34:58;;;;;;;279.65;89.10;;;6.40;57.50;;;;;;5072876;28;20016;-80
2022/12/17 16:37:24;;;;;;;175.27;64.13;;;6.40;57.00;;;;;;5054752;28;20035;-80
2022/12/17 16:39:50;;;;;;;668.25;267.30;;;6.80;56.00;;;;;;5054624;28;20094;-80
2022/12/17 16:42:15;;;;;;;67.18;27.42;;;6.80;55.60;;;;;;5055195;28;20064;-81
2022/12/17 16:44:41;;;;;;;325.33;118.80;;;6.80;55.60;;;;;;5055547;28;20060;-80
2022/12/17 16:47:08;;;;;;;187.40;69.30;;;6.50;56.50;;;;;;5055460;28;20021;-81
2022/12/17 16:49:34;;;;;;;75.53;29.02;;;6.40;56.90;;;;;;5072896;28;20060;-81
2022/12/17 16:52:01;;;;;;;123.82;48.65;;;6.20;57.60;;;;;;5055371;28;20127;-80
2022/12/17 16:54:30;;;;;;;58.20;25.00;;;6.00;57.80;;;;;;5055268;28;20025;-80
2022/12/17 16:56:55;;;;;;;57.50;25.10;;;5.90;57.90;;;;;;5073275;28;20032;-84
2022/12/17 16:59:22;;;;;;;164.77;69.45;;;6.00;57.30;;;;;;5055183;28;20021;-88
2022/12/17 17:01:49;;;;;;;170.82;70.70;;;5.90;58.30;;;;;;5055577;28;20101;-80
2022/12/17 17:04:17;;;;;;;170.13;72.28;;;5.70;58.40;;;;;;5055252;28;20028;-80
2022/12/17 17:06:51;;;;;;;73.55;32.00;;;5.50;58.80;;;;;;5055183;28;20043;-80
2022/12/17 17:09:18;;;;;;;165.65;69.22;;;5.30;59.80;;;;;;5073098;28;20048;-82
2022/12/17 17:11:44;;;;;;;126.40;53.22;;;5.30;59.60;;;;;;5055202;28;20074;-81
2022/12/17 17:14:10;;;;;;;142.23;57.33;;;5.20;59.80;;;;;;5055764;28;20032;-79
2022/12/17 17:16:36;;;;;;;100.18;41.70;;;5.30;59.40;;;;;;5076816;28;20023;-82
2022/12/17 17:19:02;;;;;;;185.60;75.95;;;5.40;60.10;;;;;;5058878;28;20029;-81
2022/12/17 17:21:30;;;;;;;79.88;33.58;;;5.50;59.00;;;;;;5058883;28;20052;-82
2022/12/17 17:24:02;;;;;;;60.00;27.65;;;5.60;58.70;;;;;;5058852;28;20036;-81
2022/12/17 17:26:30;;;;;;;150.73;70.32;;;5.60;58.30;;;;;;5058900;28;20025;-83
2022/12/17 17:28:57;;;;;;;119.75;58.85;;;5.60;59.00;;;;;;5058683;28;20094;-84
2022/12/17 17:31:23;;;;;;;70.65;28.25;;;5.40;59.40;;;;;;5076676;28;20020;-82
2022/12/17 17:33:50;;;;;;;79.45;37.63;;;5.20;59.70;;;;;;5058591;28;20059;-81
2022/12/17 17:36:22;;;;;;;58.30;26.50;;;5.20;60.20;;;;;;5076605;28;20501;-87
2022/12/17 17:38:50;;;;;;;69.32;33.88;;;5.50;59.30;;;;;;5058886;28;20020;-85
2022/12/17 17:41:18;;;;;;;63.33;30.70;;;5.40;59.70;;;;;;5076605;28;20025;-83
2022/12/17 17:43:44;;;;;;;58.17;26.02;;;5.40;59.40;;;;;;5058586;28;20028;-84
2022/12/17 17:46:18;;;;;;;89.20;43.97;;;5.50;59.70;;;;;;5058762;28;20027;-81
2022/12/17 17:48:45;;;;;;;55.97;26.02;;;5.70;58.90;;;;;;5057425;28;20040;-86
2022/12/17 17:51:13;;;;;;;80.95;36.60;;;6.00;58.80;;;;;;5076017;28;20017;-90
2022/12/17 17:53:40;;;;;;;71.35;31.23;;;5.80;58.60;;;;;;5059596;28;20146;-84
2022/12/17 17:56:13;;;;;;;65.72;30.05;;;5.30;59.30;;;;;;5058433;28;20032;-82
2022/12/17 17:58:43;;;;;;;55.80;26.83;;;5.20;60.00;;;;;;4358159;28;10000105;-82
2022/12/17 18:01:10;;;;;;;79.03;40.25;;;5.10;60.10;;;;;;5057961;28;20489;-85
2022/12/17 18:03:36;;;;;;;58.58;26.38;;;5.00;60.60;;;;;;5058291;28;20024;-88
2022/12/17 18:06:03;;;;;;;64.55;31.23;;;5.20;60.00;;;;;;5058516;28;20035;-86
2022/12/17 18:08:40;;;;;;;55.05;24.98;;;5.50;60.00;;;;;;5058059;28;20039;-84
2022/12/17 18:11:10;;;;;;;84.35;39.70;;;5.40;59.30;;;;;;5058063;28;20055;-83
2022/12/17 18:16:31;;;;;;;54.92;24.85;;;5.60;59.40;;;;;;5076102;28;20039;-85
2022/12/17 18:18:59;;;;;;;79.30;37.13;;;5.30;59.50;;;;;;5058088;28;20173;-84
2022/12/17 18:21:27;;;;;;;122.03;56.28;;;5.40;60.00;;;;;;5076113;28;20029;-84
2022/12/17 18:23:55;;;;;;;50.90;22.23;;;5.80;59.10;;;;;;5058127;28;20028;-84
2022/12/17 18:26:21;;;;;;;55.17;22.83;;;5.90;58.70;;;;;;5057909;28;20028;-87
2022/12/17 18:28:53;;;;;;;57.35;26.23;;;6.00;58.30;;;;;;5057860;28;20106;-85
2022/12/17 18:31:34;;;;;;;48.35;21.27;;;5.80;58.20;;;;;;5058064;28;20492;-84
2022/12/17 18:34:27;;;;;;;65.72;30.73;;;5.80;58.20;;;;;;5041845;28;20021;-85
2022/12/17 18:37:43;;;;;;;67.65;32.95;;;5.70;59.40;;;;;;5037943;28;20036;-87
2022/12/17 18:40:09;;;;;;;113.65;52.78;;;5.60;59.00;;;;;;5038179;28;20029;-86
2022/12/17 18:46:03;;;;;;;85.82;35.50;;;5.80;58.90;;;;;;5054801;28;20108;-85
2022/12/17 18:48:28;;;;;;;50.65;23.52;;;6.20;57.70;;;;;;5054066;28;20041;-85
2022/12/17 18:54:27;;;;;;;72.22;36.85;;;6.20;57.90;;;;;;5054803;28;20021;-86
2022/12/17 18:56:56;;;;;;;61.47;29.90;;;6.20;57.70;;;;;;5055270;28;20082;-87
2022/12/17 19:22:51;;;;;;;41.45;18.25;;;5.90;57.60;;;;;;4976236;28;20046;-85
2022/12/17 19:25:44;;;;;;;40.88;19.60;;;6.10;57.50;;;;;;4958677;28;20019;-86
2022/12/17 19:28:10;;;;;;;37.80;17.88;;;6.30;57.00;;;;;;4952814;29;20386;-85
2022/12/17 19:37:34;;;;;;;37.10;16.40;;;6.10;56.80;;;;;;4978996;28;20438;-88
2022/12/17 19:40:00;;;;;;;84.45;38.15;;;6.30;57.10;;;;;;5167899;23;20498;-90
2022/12/17 19:42:26;;;;;;;49.28;21.88;;;6.00;57.20;;;;;;4978963;28;20037;-87
2022/12/17 19:44:55;;;;;;;76.28;34.85;;;6.30;57.50;;;;;;4981579;28;20038;-86
2022/12/17 19:47:22;;;;;;;74.03;32.70;;;6.90;56.60;;;;;;4987243;28;20029;-87
2022/12/17 19:49:48;;;;;;;41.55;18.98;;;7.40;54.90;;;;;;4976549;28;20085;-88
2022/12/17 19:54:44;;;;;;;43.67;18.67;;;7.60;53.80;;;;;;4631623;28;10001795;-87
2022/12/17 19:57:10;;;;;;;93.93;38.03;;;7.50;53.90;;;;;;4956617;28;20034;-88
2022/12/17 19:59:36;;;;;;;35.95;17.05;;;6.80;54.90;;;;;;4974617;28;20023;-88
2022/12/17 20:02:02;;;;;;;34.65;15.45;;;6.70;55.30;;;;;;4956994;28;20034;-88
2022/12/17 20:04:55;;;;;;;45.10;23.38;;;6.40;56.00;;;;;;4957564;28;20446;-88
2022/12/17 20:07:20;;;;;;;36.28;17.25;;;6.70;55.60;;;;;;4956631;28;20081;-90
2022/12/17 20:13:52;;;;;;;47.40;21.00;;;6.50;55.10;;;;;;4876663;29;20039;-85
2022/12/17 20:16:42;;;;;;;44.78;17.50;;;6.80;56.10;;;;;;4864589;29;20033;-89
2022/12/17 20:19:44;;;;;;;30.23;14.35;;;6.90;54.90;;;;;;4862581;29;20097;-89
2022/12/17 20:22:10;;;;;;;68.68;30.70;;;6.60;55.00;;;;;;4860979;29;20029;-91
2022/12/17 20:24:38;;;;;;;46.33;18.88;;;6.50;55.80;;;;;;4846857;29;20088;-86
2022/12/17 20:27:04;;;;;;;64.22;23.75;;;6.30;56.30;;;;;;4871576;29;20081;-88
2022/12/17 20:29:54;;;;;;;70.50;26.80;;;6.40;56.20;;;;;;4860897;29;20105;-85
2022/12/17 20:32:20;;;;;;;49.45;20.35;;;6.50;56.30;;;;;;4866326;29;20077;-83
2022/12/17 20:35:12;;;;;;;47.72;21.02;;;6.40;55.60;;;;;;4869455;29;20034;-88
2022/12/17 20:37:38;;;;;;;62.00;22.27;;;6.20;56.20;;;;;;4859063;29;20521;-85
2022/12/17 20:40:05;;;;;;;153.20;61.67;;;6.20;56.30;;;;;;4863735;29;20025;-87
2022/12/17 20:42:32;;;;;;;35.95;16.30;;;6.00;56.20;;;;;;4845381;29;20046;-84
2022/12/17 20:48:25;;;;;;;320.90;154.65;;;6.40;56.10;;;;;;4900467;29;20099;-85
2022/12/17 20:50:51;;;;;;;46.03;21.60;;;6.70;55.50;;;;;;4931309;29;20035;-87
2022/12/17 20:53:16;;;;;;;118.32;68.32;;;6.70;55.00;;;;;;4958420;29;20054;-83
2022/12/17 20:55:43;;;;;;;131.75;68.50;;;6.50;55.50;;;;;;4957422;29;20025;-85
2022/12/17 20:58:09;;;;;;;225.43;128.90;;;6.70;55.30;;;;;;4953142;29;20023;-82
2022/12/17 21:00:41;;;;;;;317.35;203.45;;;7.00;54.80;;;;;;4926541;29;20075;-83
2022/12/17 21:03:07;;;;;;;88.55;53.67;;;7.00;54.50;;;;;;4940214;29;20031;-83
2022/12/17 21:05:34;;;;;;;174.02;104.25;;;6.90;54.80;;;;;;4941055;29;20098;-84
2022/12/17 21:08:02;;;;;;;142.63;67.07;;;7.10;54.70;;;;;;4940375;29;20555;-83
2022/12/17 21:10:28;;;;;;;359.17;193.77;;;7.30;54.60;;;;;;4956889;29;20116;-85
2022/12/17 21:15:38;;;;;;;150.80;72.43;;;7.20;54.20;;;;;;4625981;23;10002320;-84
2022/12/17 21:21:49;;;;;;;202.70;79.65;;;6.70;54.20;;;;;;4918040;29;20123;-83
2022/12/17 21:24:15;;;;;;;176.13;67.13;;;6.30;54.60;;;;;;4901840;29;20134;-83
2022/12/17 21:26:43;;;;;;;91.38;40.60;;;6.10;55.70;;;;;;4919100;29;20040;-84
2022/12/17 21:29:10;;;;;;;55.10;24.13;;;5.80;56.20;;;;;;4885909;29;20036;-85
2022/12/17 21:44:27;;;;;;;106.00;55.67;;;6.00;55.80;;;;;;4975201;28;20046;-82
2022/12/17 21:47:02;;;;;;;;;;;;;;;;;;;;;
2022/12/17 21:49:29;;;;;;;109.82;59.75;;;5.70;56.40;;;;;;4970715;28;20038;-83
2022/12/17 21:51:57;;;;;;;105.57;51.78;;;6.00;56.30;;;;;;4969077;28;20398;-84
2022/12/17 21:54:24;;;;;;;33.55;16.08;;;6.10;55.70;;;;;;4959425;28;20367;-83
2022/12/17 21:56:49;;;;;;;37.92;16.08;;;5.90;55.50;;;;;;4975546;28;20148;-84
2022/12/17 21:59:15;;;;;;;67.10;34.72;;;5.90;56.10;;;;;;4973885;28;20434;-84
2022/12/17 22:01:41;;;;;;;53.00;25.15;;;6.00;55.80;;;;;;4970028;28;20031;-82
2022/12/17 22:04:18;;;;;;;218.50;95.70;;;6.00;56.20;;;;;;4976561;28;20030;-82
2022/12/17 22:07:26;;;;;;;153.88;62.17;;;5.80;55.90;;;;;;4975888;28;20065;-83
2022/12/17 22:16:40;;;;;;;102.80;41.58;;;6.00;56.30;;;;;;4928114;29;20043;-83
2022/12/17 22:19:18;;;;;;;40.78;20.30;;;5.80;56.40;;;;;;4934299;28;20449;-83
2022/12/17 22:21:51;;;;;;;49.90;26.52;;;6.10;55.90;;;;;;4959644;28;20050;-81
2022/12/17 22:24:24;;;;;;;47.55;24.42;;;5.90;56.00;;;;;;4959817;28;20058;-82
2022/12/17 22:26:50;;;;;;;39.72;19.85;;;5.50;56.40;;;;;;4976747;28;20090;-80
2022/12/17 22:32:58;;;;;;;46.40;23.23;;;5.60;56.90;;;;;;4975620;28;20035;-81
2022/12/17 22:34:51;;;;;;;32.78;15.30;;;5.50;57.00;;;;;;4972789;28;20431;-81
2022/12/17 22:37:20;;;;;;;41.30;18.92;;;5.50;56.70;;;;;;4972556;28;20368;-81
2022/12/17 22:39:53;;;;;;;35.95;16.00;;;5.40;57.10;;;;;;4975879;28;20390;-81
2022/12/17 22:45:09;;;;;;;38.45;19.38;;;5.60;57.40;;;;;;4975210;28;20134;-81
2022/12/17 22:47:40;;;;;;;77.70;37.83;;;5.80;56.90;;;;;;4976245;28;20026;-82
2022/12/17 22:50:06;;;;;;;60.17;27.80;;;6.00;56.00;;;;;;4976378;28;20030;-80
2022/12/17 22:52:31;;;;;;;55.33;26.33;;;6.00;55.50;;;;;;4976358;28;20030;-81
2022/12/17 22:55:00;;;;;;;74.90;36.55;;;5.50;56.60;;;;;;4975239;28;20030;-81
2022/12/17 22:57:26;;;;;;;35.00;16.48;;;5.50;56.50;;;;;;4976378;28;20188;-80
2022/12/17 22:59:51;;;;;;;33.50;15.27;;;5.40;57.00;;;;;;4959189;28;20477;-79
2022/12/17 23:02:17;;;;;;;38.65;17.40;;;5.50;57.00;;;;;;4973561;28;20155;-80
2022/12/17 23:04:43;;;;;;;41.95;19.45;;;5.80;56.70;;;;;;4971195;28;20033;-82
2022/12/17 23:07:08;;;;;;;59.00;29.33;;;5.90;56.40;;;;;;4974772;28;20378;-80
2022/12/17 23:09:34;;;;;;;49.40;26.02;;;5.80;56.40;;;;;;4958544;28;20176;-81
2022/12/17 23:12:49;;;;;;;42.63;22.23;;;6.20;56.10;;;;;;4957934;28;20031;-80
2022/12/17 23:14:45;;;;;;;70.93;38.65;;;6.00;56.00;;;;;;4974655;28;20027;-83
2022/12/17 23:17:11;;;;;;;45.67;22.75;;;6.10;55.80;;;;;;4958475;28;20027;-81
2022/12/17 23:19:37;;;;;;;45.08;20.90;;;6.30;55.90;;;;;;4975476;28;20027;-80
2022/12/17 23:22:02;;;;;;;43.30;19.95;;;6.60;55.00;;;;;;4974606;28;20054;-80
2022/12/17 23:24:28;;;;;;;92.90;44.67;;;6.40;55.10;;;;;;4957554;28;20474;-81
2022/12/17 23:26:54;;;;;;;90.70;48.92;;;6.40;55.60;;;;;;4957451;28;20026;-81
2022/12/17 23:29:19;;;;;;;71.05;38.58;;;6.10;54.90;;;;;;4973620;28;20046;-80
2022/12/17 23:31:46;;;;;;;48.13;24.95;;;6.20;55.60;;;;;;4974502;28;20041;-82
2022/12/17 23:34:11;;;;;;;40.63;19.33;;;6.00;55.60;;;;;;4974213;28;20102;-80
2022/12/17 23:36:37;;;;;;;45.20;21.80;;;6.30;55.50;;;;;;4974511;28;20023;-82
2022/12/17 23:39:04;;;;;;;36.13;15.82;;;6.50;54.50;;;;;;4974668;28;20026;-82
2022/12/17 23:41:30;;;;;;;42.05;21.10;;;6.20;54.40;;;;;;4973298;28;20038;-82
2022/12/17 23:43:57;;;;;;;40.97;17.70;;;6.20;55.40;;;;;;4974322;28;20050;-80
2022/12/17 23:46:25;;;;;;;50.90;31.52;;;6.50;54.70;;;;;;4958142;28;20033;-81
2022/12/17 23:48:50;;;;;;;57.97;35.17;;;6.50;54.30;;;;;;4958489;28;20031;-81
2022/12/17 23:51:18;;;;;;;40.78;22.25;;;6.50;54.50;;;;;;4974131;28;20022;-82
2022/12/17 23:53:44;;;;;;;39.03;17.55;;;6.50;54.10;;;;;;4975302;28;20034;-83
2022/12/17 23:56:16;;;;;;;38.70;17.75;;;6.60;54.80;;;;;;4973127;28;20038;-82
2022/12/17 23:58:43;;;;;;;39.65;18.80;;;6.40;54.70;;;;;;4957917;28;20026;-81
